Terminal Aerodrome Forecast
Issued by NWS

Home | Current Version | Previous Version | Text Only | Print | Product List | Glossary On
Versions: 1 2 3 4 5 6 7 8 9 10 11 12 13 14 15 16 17 18 19 20
171
FTUS44 KBMX 250654 AAA
TAFEET
TAF AMD
KEET 250654Z 2507/2606 00000KT P6SM BKN250
     FM250900 00000KT 5SM BR SCT008
      TEMPO 2509/2511 3SM BR BKN008
     FM251100 00000KT 2SM BR OVC004
     FM251400 26002KT 4SM BR OVC015
     FM251800 24004KT P6SM BKN040 PROB30 2519/2523 TSRA BKN050CB=

USA.gov is the U.S. government's official web portal to all federal, state and local government web resources and services.